sensor_id;sensor_type;location;lat;lon;timestamp;P1;durP1;ratioP1;P2;durP2;ratioP2
57828;SDS011;43657;52.698;6.314;2023-11-21T00:06:15;441.73;;;91.93;;
57828;SDS011;43657;52.698;6.314;2023-11-21T00:09:52;480.88;;;104.15;;
57828;SDS011;43657;52.698;6.314;2023-11-21T00:13:25;389.98;;;94.80;;
57828;SDS011;43657;52.698;6.314;2023-11-21T00:34:03;439.23;;;96.93;;
57828;SDS011;43657;52.698;6.314;2023-11-21T00:37:47;452.73;;;95.80;;
57828;SDS011;43657;52.698;6.314;2023-11-21T00:48:07;455.15;;;96.25;;
57828;SDS011;43657;52.698;6.314;2023-11-21T00:51:36;474.13;;;94.93;;
57828;SDS011;43657;52.698;6.314;2023-11-21T00:54:46;490.85;;;98.35;;
57828;SDS011;43657;52.698;6.314;2023-11-21T01:48:21;286.95;;;72.53;;
57828;SDS011;43657;52.698;6.314;2023-11-21T02:10:32;289.65;;;74.15;;
57828;SDS011;43657;52.698;6.314;2023-11-21T02:18:37;193.35;;;60.88;;
57828;SDS011;43657;52.698;6.314;2023-11-21T02:25:18;346.77;;;82.18;;
57828;SDS011;43657;52.698;6.314;2023-11-21T02:28:13;470.60;;;90.60;;
57828;SDS011;43657;52.698;6.314;2023-11-21T02:30:50;497.98;;;94.68;;
57828;SDS011;43657;52.698;6.314;2023-11-21T02:33:24;480.45;;;95.20;;
57828;SDS011;43657;52.698;6.314;2023-11-21T02:35:52;469.77;;;94.07;;
57828;SDS011;43657;52.698;6.314;2023-11-21T02:38:20;416.10;;;91.00;;
57828;SDS011;43657;52.698;6.314;2023-11-21T02:40:46;379.77;;;86.05;;
57828;SDS011;43657;52.698;6.314;2023-11-21T02:43:11;518.30;;;101.35;;
57828;SDS011;43657;52.698;6.314;2023-11-21T02:45:37;485.63;;;98.90;;
57828;SDS011;43657;52.698;6.314;2023-11-21T02:48:03;496.80;;;101.28;;
57828;SDS011;43657;52.698;6.314;2023-11-21T02:50:29;505.63;;;99.45;;
57828;SDS011;43657;52.698;6.314;2023-11-21T02:52:55;455.90;;;94.97;;
57828;SDS011;43657;52.698;6.314;2023-11-21T02:55:22;393.88;;;92.53;;
57828;SDS011;43657;52.698;6.314;2023-11-21T02:57:49;499.33;;;102.78;;
57828;SDS011;43657;52.698;6.314;2023-11-21T03:00:16;518.90;;;101.35;;
57828;SDS011;43657;52.698;6.314;2023-11-21T03:02:42;529.08;;;107.18;;
57828;SDS011;43657;52.698;6.314;2023-11-21T03:05:08;484.15;;;100.40;;
57828;SDS011;43657;52.698;6.314;2023-11-21T03:07:35;499.83;;;108.13;;
57828;SDS011;43657;52.698;6.314;2023-11-21T03:10:03;466.25;;;99.53;;
57828;SDS011;43657;52.698;6.314;2023-11-21T03:12:29;433.17;;;99.97;;
57828;SDS011;43657;52.698;6.314;2023-11-21T03:14:55;401.27;;;94.22;;
57828;SDS011;43657;52.698;6.314;2023-11-21T03:17:21;427.50;;;101.05;;
57828;SDS011;43657;52.698;6.314;2023-11-21T03:19:46;484.05;;;105.45;;
57828;SDS011;43657;52.698;6.314;2023-11-21T03:22:12;400.40;;;98.82;;
57828;SDS011;43657;52.698;6.314;2023-11-21T03:24:38;496.85;;;105.03;;
57828;SDS011;43657;52.698;6.314;2023-11-21T03:27:04;448.05;;;101.85;;
57828;SDS011;43657;52.698;6.314;2023-11-21T03:29:29;489.15;;;105.72;;
57828;SDS011;43657;52.698;6.314;2023-11-21T03:31:55;454.75;;;103.20;;
57828;SDS011;43657;52.698;6.314;2023-11-21T03:34:25;537.38;;;115.15;;
57828;SDS011;43657;52.698;6.314;2023-11-21T03:36:51;401.77;;;100.53;;
57828;SDS011;43657;52.698;6.314;2023-11-21T03:39:17;558.10;;;116.15;;
57828;SDS011;43657;52.698;6.314;2023-11-21T03:41:44;386.35;;;96.95;;
57828;SDS011;43657;52.698;6.314;2023-11-21T03:44:10;503.83;;;107.25;;
57828;SDS011;43657;52.698;6.314;2023-11-21T03:46:35;428.20;;;104.07;;
57828;SDS011;43657;52.698;6.314;2023-11-21T03:49:01;530.33;;;110.78;;
57828;SDS011;43657;52.698;6.314;2023-11-21T03:51:27;572.55;;;115.50;;
57828;SDS011;43657;52.698;6.314;2023-11-21T03:53:52;532.60;;;115.35;;
57828;SDS011;43657;52.698;6.314;2023-11-21T03:56:18;549.60;;;115.13;;
57828;SDS011;43657;52.698;6.314;2023-11-21T03:58:46;480.48;;;104.18;;
57828;SDS011;43657;52.698;6.314;2023-11-21T04:01:18;426.25;;;100.45;;
57828;SDS011;43657;52.698;6.314;2023-11-21T04:03:45;362.63;;;97.03;;
57828;SDS011;43657;52.698;6.314;2023-11-21T04:06:11;468.45;;;107.18;;
57828;SDS011;43657;52.698;6.314;2023-11-21T04:08:36;471.77;;;104.90;;
57828;SDS011;43657;52.698;6.314;2023-11-21T04:11:02;447.20;;;104.82;;
57828;SDS011;43657;52.698;6.314;2023-11-21T04:13:29;486.42;;;104.07;;
57828;SDS011;43657;52.698;6.314;2023-11-21T04:15:55;469.42;;;104.90;;
57828;SDS011;43657;52.698;6.314;2023-11-21T04:18:21;448.88;;;104.85;;
57828;SDS011;43657;52.698;6.314;2023-11-21T04:20:48;475.45;;;107.57;;
57828;SDS011;43657;52.698;6.314;2023-11-21T04:23:14;573.38;;;116.95;;
57828;SDS011;43657;52.698;6.314;2023-11-21T04:25:40;621.58;;;123.63;;
57828;SDS011;43657;52.698;6.314;2023-11-21T04:28:06;620.17;;;120.40;;
57828;SDS011;43657;52.698;6.314;2023-11-21T04:30:31;158.88;;;68.72;;
57828;SDS011;43657;52.698;6.314;2023-11-21T04:32:57;551.08;;;115.57;;
57828;SDS011;43657;52.698;6.314;2023-11-21T04:35:23;315.95;;;91.95;;
57828;SDS011;43657;52.698;6.314;2023-11-21T04:37:49;424.42;;;101.80;;
57828;SDS011;43657;52.698;6.314;2023-11-21T04:40:16;443.52;;;103.50;;
57828;SDS011;43657;52.698;6.314;2023-11-21T04:42:41;535.53;;;112.85;;
57828;SDS011;43657;52.698;6.314;2023-11-21T04:45:07;534.08;;;109.32;;
57828;SDS011;43657;52.698;6.314;2023-11-21T04:47:34;551.75;;;113.75;;
57828;SDS011;43657;52.698;6.314;2023-11-21T04:50:00;534.85;;;115.00;;
57828;SDS011;43657;52.698;6.314;2023-11-21T04:52:26;431.77;;;95.72;;
57828;SDS011;43657;52.698;6.314;2023-11-21T04:54:52;257.80;;;83.60;;
57828;SDS011;43657;52.698;6.314;2023-11-21T04:57:19;569.47;;;115.68;;
57828;SDS011;43657;52.698;6.314;2023-11-21T04:59:45;395.48;;;94.88;;
57828;SDS011;43657;52.698;6.314;2023-11-21T05:02:11;220.77;;;76.45;;
57828;SDS011;43657;52.698;6.314;2023-11-21T05:04:37;377.23;;;93.65;;
57828;SDS011;43657;52.698;6.314;2023-11-21T05:07:03;540.15;;;105.93;;
57828;SDS011;43657;52.698;6.314;2023-11-21T05:09:28;556.00;;;111.85;;
57828;SDS011;43657;52.698;6.314;2023-11-21T05:11:57;462.55;;;103.25;;
57828;SDS011;43657;52.698;6.314;2023-11-21T05:14:22;426.67;;;101.90;;
57828;SDS011;43657;52.698;6.314;2023-11-21T05:16:48;603.65;;;115.72;;
57828;SDS011;43657;52.698;6.314;2023-11-21T05:19:16;540.17;;;108.30;;
57828;SDS011;43657;52.698;6.314;2023-11-21T05:21:41;483.00;;;101.30;;
57828;SDS011;43657;52.698;6.314;2023-11-21T05:24:07;426.38;;;98.13;;
57828;SDS011;43657;52.698;6.314;2023-11-21T05:26:32;485.10;;;102.80;;
57828;SDS011;43657;52.698;6.314;2023-11-21T05:28:58;528.60;;;107.90;;
57828;SDS011;43657;52.698;6.314;2023-11-21T05:31:24;416.90;;;96.15;;
57828;SDS011;43657;52.698;6.314;2023-11-21T05:33:49;457.13;;;101.38;;
57828;SDS011;43657;52.698;6.314;2023-11-21T05:36:15;279.60;;;80.90;;
57828;SDS011;43657;52.698;6.314;2023-11-21T05:38:40;229.35;;;78.50;;
57828;SDS011;43657;52.698;6.314;2023-11-21T05:41:06;194.48;;;70.90;;
57828;SDS011;43657;52.698;6.314;2023-11-21T05:43:33;203.85;;;72.28;;
57828;SDS011;43657;52.698;6.314;2023-11-21T05:46:00;169.57;;;69.40;;
57828;SDS011;43657;52.698;6.314;2023-11-21T05:48:26;198.70;;;70.80;;
57828;SDS011;43657;52.698;6.314;2023-11-21T05:50:52;198.10;;;71.25;;
57828;SDS011;43657;52.698;6.314;2023-11-21T05:53:17;174.38;;;66.95;;
57828;SDS011;43657;52.698;6.314;2023-11-21T05:55:43;203.85;;;71.47;;
57828;SDS011;43657;52.698;6.314;2023-11-21T05:58:08;170.18;;;64.63;;
57828;SDS011;43657;52.698;6.314;2023-11-21T06:00:34;160.65;;;63.28;;
57828;SDS011;43657;52.698;6.314;2023-11-21T06:03:00;159.30;;;61.88;;
57828;SDS011;43657;52.698;6.314;2023-11-21T06:05:26;177.20;;;65.25;;
57828;SDS011;43657;52.698;6.314;2023-11-21T06:07:52;163.38;;;62.42;;
57828;SDS011;43657;52.698;6.314;2023-11-21T06:10:22;197.85;;;67.72;;
57828;SDS011;43657;52.698;6.314;2023-11-21T06:12:48;141.32;;;58.00;;
57828;SDS011;43657;52.698;6.314;2023-11-21T06:15:14;141.38;;;59.88;;
57828;SDS011;43657;52.698;6.314;2023-11-21T06:17:41;152.15;;;61.15;;
57828;SDS011;43657;52.698;6.314;2023-11-21T06:20:08;175.93;;;64.55;;
57828;SDS011;43657;52.698;6.314;2023-11-21T06:22:39;145.77;;;58.83;;
57828;SDS011;43657;52.698;6.314;2023-11-21T06:25:06;149.48;;;59.92;;
57828;SDS011;43657;52.698;6.314;2023-11-21T06:27:33;146.38;;;59.35;;
57828;SDS011;43657;52.698;6.314;2023-11-21T06:29:59;167.68;;;62.53;;
57828;SDS011;43657;52.698;6.314;2023-11-21T06:32:25;152.35;;;59.30;;
57828;SDS011;43657;52.698;6.314;2023-11-21T06:34:51;142.70;;;59.10;;
57828;SDS011;43657;52.698;6.314;2023-11-21T06:37:19;141.95;;;58.42;;
57828;SDS011;43657;52.698;6.314;2023-11-21T06:39:48;154.50;;;59.45;;
57828;SDS011;43657;52.698;6.314;2023-11-21T06:42:14;160.95;;;62.47;;
57828;SDS011;43657;52.698;6.314;2023-11-21T06:44:40;172.98;;;62.42;;
57828;SDS011;43657;52.698;6.314;2023-11-21T06:47:06;167.30;;;64.32;;
57828;SDS011;43657;52.698;6.314;2023-11-21T06:49:32;191.48;;;66.30;;
57828;SDS011;43657;52.698;6.314;2023-11-21T06:51:58;177.73;;;64.80;;
57828;SDS011;43657;52.698;6.314;2023-11-21T06:54:24;183.02;;;65.10;;
57828;SDS011;43657;52.698;6.314;2023-11-21T06:56:51;234.18;;;73.80;;
57828;SDS011;43657;52.698;6.314;2023-11-21T06:59:18;276.63;;;77.25;;
57828;SDS011;43657;52.698;6.314;2023-11-21T07:01:44;255.90;;;77.80;;
57828;SDS011;43657;52.698;6.314;2023-11-21T07:04:09;373.88;;;89.65;;
57828;SDS011;43657;52.698;6.314;2023-11-21T07:06:35;236.90;;;77.25;;
57828;SDS011;43657;52.698;6.314;2023-11-21T07:09:01;273.65;;;80.53;;
57828;SDS011;43657;52.698;6.314;2023-11-21T07:11:28;346.60;;;88.70;;
57828;SDS011;43657;52.698;6.314;2023-11-21T07:13:53;242.45;;;77.47;;
57828;SDS011;43657;52.698;6.314;2023-11-21T07:16:19;224.50;;;72.70;;
57828;SDS011;43657;52.698;6.314;2023-11-21T07:18:44;202.45;;;72.80;;
57828;SDS011;43657;52.698;6.314;2023-11-21T07:21:10;186.43;;;71.13;;
57828;SDS011;43657;52.698;6.314;2023-11-21T07:23:40;216.40;;;74.38;;
57828;SDS011;43657;52.698;6.314;2023-11-21T07:26:06;208.02;;;73.00;;
57828;SDS011;43657;52.698;6.314;2023-11-21T07:28:34;197.68;;;70.50;;
57828;SDS011;43657;52.698;6.314;2023-11-21T07:31:00;198.57;;;73.57;;
57828;SDS011;43657;52.698;6.314;2023-11-21T07:33:26;165.02;;;67.22;;
57828;SDS011;43657;52.698;6.314;2023-11-21T07:35:52;152.25;;;65.82;;
57828;SDS011;43657;52.698;6.314;2023-11-21T07:38:18;177.57;;;70.30;;
57828;SDS011;43657;52.698;6.314;2023-11-21T07:40:43;140.30;;;62.92;;
57828;SDS011;43657;52.698;6.314;2023-11-21T07:43:09;111.28;;;56.85;;
57828;SDS011;43657;52.698;6.314;2023-11-21T07:45:35;147.77;;;63.58;;
57828;SDS011;43657;52.698;6.314;2023-11-21T07:48:01;117.25;;;57.88;;
57828;SDS011;43657;52.698;6.314;2023-11-21T07:50:28;97.70;;;53.10;;
57828;SDS011;43657;52.698;6.314;2023-11-21T07:52:54;96.30;;;51.13;;
57828;SDS011;43657;52.698;6.314;2023-11-21T07:55:20;96.78;;;51.08;;
57828;SDS011;43657;52.698;6.314;2023-11-21T07:57:45;84.55;;;48.03;;
57828;SDS011;43657;52.698;6.314;2023-11-21T08:00:11;80.90;;;45.97;;
57828;SDS011;43657;52.698;6.314;2023-11-21T08:02:38;129.98;;;53.75;;
57828;SDS011;43657;52.698;6.314;2023-11-21T08:05:05;95.72;;;45.55;;
57828;SDS011;43657;52.698;6.314;2023-11-21T08:07:33;54.95;;;37.88;;
57828;SDS011;43657;52.698;6.314;2023-11-21T08:09:58;60.30;;;38.28;;
57828;SDS011;43657;52.698;6.314;2023-11-21T08:12:24;60.60;;;39.20;;
57828;SDS011;43657;52.698;6.314;2023-11-21T08:14:51;55.40;;;37.47;;
57828;SDS011;43657;52.698;6.314;2023-11-21T08:17:16;58.35;;;36.78;;
57828;SDS011;43657;52.698;6.314;2023-11-21T08:19:44;56.97;;;36.35;;
57828;SDS011;43657;52.698;6.314;2023-11-21T08:22:14;61.33;;;36.40;;
57828;SDS011;43657;52.698;6.314;2023-11-21T08:24:41;57.35;;;35.63;;
57828;SDS011;43657;52.698;6.314;2023-11-21T08:27:06;49.75;;;33.05;;
57828;SDS011;43657;52.698;6.314;2023-11-21T08:29:32;64.00;;;35.97;;
57828;SDS011;43657;52.698;6.314;2023-11-21T08:31:57;61.80;;;35.92;;
57828;SDS011;43657;52.698;6.314;2023-11-21T08:34:24;66.80;;;37.70;;
57828;SDS011;43657;52.698;6.314;2023-11-21T08:36:50;57.97;;;36.25;;
57828;SDS011;43657;52.698;6.314;2023-11-21T08:39:16;50.47;;;34.88;;
57828;SDS011;43657;52.698;6.314;2023-11-21T08:41:44;48.47;;;33.33;;
57828;SDS011;43657;52.698;6.314;2023-11-21T08:44:09;44.13;;;30.50;;
57828;SDS011;43657;52.698;6.314;2023-11-21T08:46:35;38.55;;;29.15;;
57828;SDS011;43657;52.698;6.314;2023-11-21T08:49:03;46.67;;;31.63;;
57828;SDS011;43657;52.698;6.314;2023-11-21T08:51:29;67.70;;;36.85;;
57828;SDS011;43657;52.698;6.314;2023-11-21T08:53:54;62.17;;;35.33;;
57828;SDS011;43657;52.698;6.314;2023-11-21T08:56:24;42.40;;;30.13;;
57828;SDS011;43657;52.698;6.314;2023-11-21T08:58:50;42.50;;;29.33;;
57828;SDS011;43657;52.698;6.314;2023-11-21T09:01:15;51.17;;;33.08;;
57828;SDS011;43657;52.698;6.314;2023-11-21T09:03:42;64.13;;;36.08;;
57828;SDS011;43657;52.698;6.314;2023-11-21T09:06:08;52.72;;;32.90;;
57828;SDS011;43657;52.698;6.314;2023-11-21T09:08:35;44.88;;;31.60;;
57828;SDS011;43657;52.698;6.314;2023-11-21T09:11:00;52.80;;;32.50;;
57828;SDS011;43657;52.698;6.314;2023-11-21T09:13:26;44.25;;;29.88;;
57828;SDS011;43657;52.698;6.314;2023-11-21T09:15:52;46.05;;;31.42;;
57828;SDS011;43657;52.698;6.314;2023-11-21T09:18:20;64.25;;;34.38;;
57828;SDS011;43657;52.698;6.314;2023-11-21T09:20:45;49.63;;;31.42;;
57828;SDS011;43657;52.698;6.314;2023-11-21T09:23:11;47.95;;;30.65;;
57828;SDS011;43657;52.698;6.314;2023-11-21T09:25:37;44.60;;;30.25;;
57828;SDS011;43657;52.698;6.314;2023-11-21T09:28:06;54.22;;;31.90;;
57828;SDS011;43657;52.698;6.314;2023-11-21T09:30:33;54.63;;;32.55;;
57828;SDS011;43657;52.698;6.314;2023-11-21T09:33:00;46.75;;;30.13;;
57828;SDS011;43657;52.698;6.314;2023-11-21T09:35:26;40.70;;;28.75;;
57828;SDS011;43657;52.698;6.314;2023-11-21T09:37:53;44.83;;;30.25;;
57828;SDS011;43657;52.698;6.314;2023-11-21T09:40:20;44.65;;;29.73;;
57828;SDS011;43657;52.698;6.314;2023-11-21T09:42:56;41.00;;;27.15;;
57828;SDS011;43657;52.698;6.314;2023-11-21T09:45:29;48.17;;;30.25;;
57828;SDS011;43657;52.698;6.314;2023-11-21T09:47:59;41.97;;;29.80;;
57828;SDS011;43657;52.698;6.314;2023-11-21T09:50:26;49.30;;;30.25;;
57828;SDS011;43657;52.698;6.314;2023-11-21T09:53:04;45.05;;;28.02;;
57828;SDS011;43657;52.698;6.314;2023-11-21T09:55:35;43.53;;;27.48;;
57828;SDS011;43657;52.698;6.314;2023-11-21T09:58:04;57.17;;;34.30;;
57828;SDS011;43657;52.698;6.314;2023-11-21T10:00:32;64.13;;;33.47;;
57828;SDS011;43657;52.698;6.314;2023-11-21T10:02:58;79.60;;;32.95;;
57828;SDS011;43657;52.698;6.314;2023-11-21T10:05:24;72.57;;;33.58;;
57828;SDS011;43657;52.698;6.314;2023-11-21T10:07:50;78.15;;;33.78;;
57828;SDS011;43657;52.698;6.314;2023-11-21T10:10:18;104.03;;;34.78;;
57828;SDS011;43657;52.698;6.314;2023-11-21T10:12:52;101.65;;;33.60;;
57828;SDS011;43657;52.698;6.314;2023-11-21T10:15:21;110.22;;;36.45;;
57828;SDS011;43657;52.698;6.314;2023-11-21T10:17:51;62.95;;;33.55;;
57828;SDS011;43657;52.698;6.314;2023-11-21T10:20:20;62.03;;;34.90;;
57828;SDS011;43657;52.698;6.314;2023-11-21T10:22:45;54.28;;;33.40;;
57828;SDS011;43657;52.698;6.314;2023-11-21T10:25:11;72.65;;;36.78;;
57828;SDS011;43657;52.698;6.314;2023-11-21T10:27:39;52.10;;;33.13;;
57828;SDS011;43657;52.698;6.314;2023-11-21T10:30:06;57.65;;;36.88;;
57828;SDS011;43657;52.698;6.314;2023-11-21T10:32:36;55.25;;;35.38;;
57828;SDS011;43657;52.698;6.314;2023-11-21T10:35:03;136.23;;;42.70;;
57828;SDS011;43657;52.698;6.314;2023-11-21T10:37:35;78.30;;;41.00;;
57828;SDS011;43657;52.698;6.314;2023-11-21T10:40:05;71.50;;;41.35;;
57828;SDS011;43657;52.698;6.314;2023-11-21T10:42:37;74.20;;;42.20;;
57828;SDS011;43657;52.698;6.314;2023-11-21T10:45:04;77.60;;;43.30;;
57828;SDS011;43657;52.698;6.314;2023-11-21T10:50:03;80.68;;;45.55;;
57828;SDS011;43657;52.698;6.314;2023-11-21T10:52:30;65.38;;;42.30;;
57828;SDS011;43657;52.698;6.314;2023-11-21T10:54:56;72.63;;;43.15;;
57828;SDS011;43657;52.698;6.314;2023-11-21T10:57:24;66.85;;;43.38;;
57828;SDS011;43657;52.698;6.314;2023-11-21T10:59:50;80.97;;;45.40;;
57828;SDS011;43657;52.698;6.314;2023-11-21T11:02:22;64.75;;;43.55;;
57828;SDS011;43657;52.698;6.314;2023-11-21T11:04:57;58.47;;;40.53;;
57828;SDS011;43657;52.698;6.314;2023-11-21T11:07:26;53.97;;;39.63;;
57828;SDS011;43657;52.698;6.314;2023-11-21T11:09:55;52.50;;;38.80;;
57828;SDS011;43657;52.698;6.314;2023-11-21T11:12:23;56.38;;;40.97;;
57828;SDS011;43657;52.698;6.314;2023-11-21T11:14:49;60.60;;;42.75;;
57828;SDS011;43657;52.698;6.314;2023-11-21T11:17:15;85.13;;;48.95;;
57828;SDS011;43657;52.698;6.314;2023-11-21T11:19:44;75.47;;;47.55;;
57828;SDS011;43657;52.698;6.314;2023-11-21T11:28:14;64.10;;;46.42;;
57828;SDS011;43657;52.698;6.314;2023-11-21T11:30:51;67.78;;;47.78;;
57828;SDS011;43657;52.698;6.314;2023-11-21T11:38:57;62.10;;;43.00;;
57828;SDS011;43657;52.698;6.314;2023-11-21T11:41:24;59.22;;;43.08;;
57828;SDS011;43657;52.698;6.314;2023-11-21T11:43:57;72.13;;;44.65;;
57828;SDS011;43657;52.698;6.314;2023-11-21T11:46:40;69.03;;;45.85;;
57828;SDS011;43657;52.698;6.314;2023-11-21T11:49:07;49.03;;;39.30;;
57828;SDS011;43657;52.698;6.314;2023-11-21T11:51:33;63.60;;;42.42;;
57828;SDS011;43657;52.698;6.314;2023-11-21T11:54:00;54.90;;;41.15;;
57828;SDS011;43657;52.698;6.314;2023-11-21T11:56:30;46.08;;;38.88;;
57828;SDS011;43657;52.698;6.314;2023-11-21T11:58:59;52.60;;;39.47;;
57828;SDS011;43657;52.698;6.314;2023-11-21T12:01:32;50.28;;;38.38;;
57828;SDS011;43657;52.698;6.314;2023-11-21T12:06:39;40.67;;;35.33;;
57828;SDS011;43657;52.698;6.314;2023-11-21T12:09:12;40.13;;;34.72;;
57828;SDS011;43657;52.698;6.314;2023-11-21T12:11:49;43.63;;;35.95;;
57828;SDS011;43657;52.698;6.314;2023-11-21T12:14:15;40.35;;;35.95;;
57828;SDS011;43657;52.698;6.314;2023-11-21T12:16:41;43.15;;;36.03;;
57828;SDS011;43657;52.698;6.314;2023-11-21T12:19:11;34.97;;;31.45;;
57828;SDS011;43657;52.698;6.314;2023-11-21T12:21:37;29.40;;;26.52;;
57828;SDS011;43657;52.698;6.314;2023-11-21T12:24:03;25.70;;;23.30;;
57828;SDS011;43657;52.698;6.314;2023-11-21T12:26:29;24.95;;;22.55;;
57828;SDS011;43657;52.698;6.314;2023-11-21T12:28:55;25.25;;;22.95;;
57828;SDS011;43657;52.698;6.314;2023-11-21T12:31:21;22.42;;;20.33;;
57828;SDS011;43657;52.698;6.314;2023-11-21T12:33:51;22.30;;;20.10;;
57828;SDS011;43657;52.698;6.314;2023-11-21T12:36:21;20.48;;;18.67;;
57828;SDS011;43657;52.698;6.314;2023-11-21T12:38:48;21.52;;;19.55;;
57828;SDS011;43657;52.698;6.314;2023-11-21T12:41:15;22.35;;;20.45;;
57828;SDS011;43657;52.698;6.314;2023-11-21T12:43:54;21.40;;;19.50;;
57828;SDS011;43657;52.698;6.314;2023-11-21T12:46:24;22.63;;;20.60;;
57828;SDS011;43657;52.698;6.314;2023-11-21T12:48:54;21.30;;;19.48;;
57828;SDS011;43657;52.698;6.314;2023-11-21T12:51:24;23.27;;;21.30;;
57828;SDS011;43657;52.698;6.314;2023-11-21T12:53:54;21.70;;;19.85;;
57828;SDS011;43657;52.698;6.314;2023-11-21T12:56:30;25.35;;;22.80;;
57828;SDS011;43657;52.698;6.314;2023-11-21T12:58:57;21.35;;;19.58;;
57828;SDS011;43657;52.698;6.314;2023-11-21T13:01:25;20.92;;;19.10;;
57828;SDS011;43657;52.698;6.314;2023-11-21T13:03:58;22.27;;;20.38;;
57828;SDS011;43657;52.698;6.314;2023-11-21T13:06:27;22.38;;;20.38;;
57828;SDS011;43657;52.698;6.314;2023-11-21T13:09:01;21.35;;;19.35;;
57828;SDS011;43657;52.698;6.314;2023-11-21T13:11:36;20.77;;;18.98;;
57828;SDS011;43657;52.698;6.314;2023-11-21T13:14:06;20.08;;;18.25;;
57828;SDS011;43657;52.698;6.314;2023-11-21T13:16:33;19.45;;;17.85;;
57828;SDS011;43657;52.698;6.314;2023-11-21T13:19:20;19.17;;;17.48;;
57828;SDS011;43657;52.698;6.314;2023-11-21T13:21:50;18.10;;;16.50;;
57828;SDS011;43657;52.698;6.314;2023-11-21T13:24:24;18.30;;;16.67;;
57828;SDS011;43657;52.698;6.314;2023-11-21T13:26:54;17.52;;;16.02;;
57828;SDS011;43657;52.698;6.314;2023-11-21T13:29:20;17.35;;;15.75;;
57828;SDS011;43657;52.698;6.314;2023-11-21T13:31:51;17.70;;;16.17;;
57828;SDS011;43657;52.698;6.314;2023-11-21T13:34:18;18.63;;;16.92;;
57828;SDS011;43657;52.698;6.314;2023-11-21T13:36:53;18.48;;;16.90;;
57828;SDS011;43657;52.698;6.314;2023-11-21T13:39:24;20.23;;;18.30;;
57828;SDS011;43657;52.698;6.314;2023-11-21T13:41:54;18.05;;;16.45;;
57828;SDS011;43657;52.698;6.314;2023-11-21T13:44:25;18.02;;;16.35;;
57828;SDS011;43657;52.698;6.314;2023-11-21T13:46:54;16.38;;;14.93;;
57828;SDS011;43657;52.698;6.314;2023-11-21T13:49:22;16.13;;;14.73;;
57828;SDS011;43657;52.698;6.314;2023-11-21T13:51:48;16.48;;;14.98;;
57828;SDS011;43657;52.698;6.314;2023-11-21T13:54:19;15.48;;;14.07;;
57828;SDS011;43657;52.698;6.314;2023-11-21T13:56:54;16.15;;;14.55;;
57828;SDS011;43657;52.698;6.314;2023-11-21T13:59:26;16.05;;;14.40;;
57828;SDS011;43657;52.698;6.314;2023-11-21T14:02:01;15.02;;;13.52;;
57828;SDS011;43657;52.698;6.314;2023-11-21T14:04:41;15.38;;;13.98;;
57828;SDS011;43657;52.698;6.314;2023-11-21T14:07:17;15.90;;;14.45;;
57828;SDS011;43657;52.698;6.314;2023-11-21T14:10:04;14.85;;;13.45;;
57828;SDS011;43657;52.698;6.314;2023-11-21T14:12:33;14.32;;;13.00;;
57828;SDS011;43657;52.698;6.314;2023-11-21T14:15:02;14.60;;;13.32;;
57828;SDS011;43657;52.698;6.314;2023-11-21T14:17:31;14.73;;;13.43;;
57828;SDS011;43657;52.698;6.314;2023-11-21T14:20:00;16.05;;;14.65;;
57828;SDS011;43657;52.698;6.314;2023-11-21T14:22:30;15.45;;;14.05;;
57828;SDS011;43657;52.698;6.314;2023-11-21T14:25:04;14.75;;;13.48;;
57828;SDS011;43657;52.698;6.314;2023-11-21T14:27:33;16.05;;;14.50;;
57828;SDS011;43657;52.698;6.314;2023-11-21T14:29:59;14.90;;;13.30;;
57828;SDS011;43657;52.698;6.314;2023-11-21T14:32:26;16.05;;;14.38;;
57828;SDS011;43657;52.698;6.314;2023-11-21T14:34:52;14.63;;;13.43;;
57828;SDS011;43657;52.698;6.314;2023-11-21T14:37:19;16.60;;;15.00;;
57828;SDS011;43657;52.698;6.314;2023-11-21T14:39:46;16.30;;;14.80;;
57828;SDS011;43657;52.698;6.314;2023-11-21T14:42:15;16.48;;;14.90;;
57828;SDS011;43657;52.698;6.314;2023-11-21T14:44:41;17.08;;;15.48;;
57828;SDS011;43657;52.698;6.314;2023-11-21T14:47:08;17.75;;;16.15;;
57828;SDS011;43657;52.698;6.314;2023-11-21T14:49:41;20.60;;;18.63;;
57828;SDS011;43657;52.698;6.314;2023-11-21T14:52:24;18.48;;;16.77;;
57828;SDS011;43657;52.698;6.314;2023-11-21T14:55:00;17.73;;;16.10;;
57828;SDS011;43657;52.698;6.314;2023-11-21T14:57:50;18.60;;;16.88;;
57828;SDS011;43657;52.698;6.314;2023-11-21T15:03:24;17.23;;;15.63;;
57828;SDS011;43657;52.698;6.314;2023-11-21T15:05:56;16.98;;;15.48;;
57828;SDS011;43657;52.698;6.314;2023-11-21T15:08:55;16.00;;;14.48;;
57828;SDS011;43657;52.698;6.314;2023-11-21T15:11:44;17.77;;;16.08;;
57828;SDS011;43657;52.698;6.314;2023-11-21T15:14:17;17.63;;;15.88;;
57828;SDS011;43657;52.698;6.314;2023-11-21T15:16:48;16.05;;;14.55;;
57828;SDS011;43657;52.698;6.314;2023-11-21T15:19:18;16.73;;;15.23;;
57828;SDS011;43657;52.698;6.314;2023-11-21T15:21:54;15.63;;;14.02;;
57828;SDS011;43657;52.698;6.314;2023-11-21T15:24:25;15.40;;;14.00;;
57828;SDS011;43657;52.698;6.314;2023-11-21T15:26:51;18.65;;;16.95;;
57828;SDS011;43657;52.698;6.314;2023-11-21T15:29:20;20.10;;;18.20;;
57828;SDS011;43657;52.698;6.314;2023-11-21T15:31:52;16.20;;;14.80;;
57828;SDS011;43657;52.698;6.314;2023-11-21T15:34:24;18.85;;;17.27;;
57828;SDS011;43657;52.698;6.314;2023-11-21T15:36:55;15.43;;;14.02;;
57828;SDS011;43657;52.698;6.314;2023-11-21T15:40:07;18.88;;;17.23;;
57828;SDS011;43657;52.698;6.314;2023-11-21T15:43:15;17.45;;;15.85;;
57828;SDS011;43657;52.698;6.314;2023-11-21T15:45:41;16.77;;;15.10;;
57828;SDS011;43657;52.698;6.314;2023-11-21T15:48:08;15.02;;;13.68;;
57828;SDS011;43657;52.698;6.314;2023-11-21T15:50:35;17.98;;;16.45;;
57828;SDS011;43657;52.698;6.314;2023-11-21T15:53:02;14.57;;;13.25;;
57828;SDS011;43657;52.698;6.314;2023-11-21T15:55:30;14.90;;;13.55;;
57828;SDS011;43657;52.698;6.314;2023-11-21T15:57:56;14.10;;;12.90;;
57828;SDS011;43657;52.698;6.314;2023-11-21T16:00:23;15.82;;;14.25;;
57828;SDS011;43657;52.698;6.314;2023-11-21T16:02:49;14.18;;;12.88;;
57828;SDS011;43657;52.698;6.314;2023-11-21T16:05:18;15.10;;;13.70;;
57828;SDS011;43657;52.698;6.314;2023-11-21T16:07:44;15.50;;;14.18;;
57828;SDS011;43657;52.698;6.314;2023-11-21T16:10:10;19.50;;;17.67;;
57828;SDS011;43657;52.698;6.314;2023-11-21T16:12:36;16.95;;;15.25;;
57828;SDS011;43657;52.698;6.314;2023-11-21T16:15:05;18.63;;;16.83;;
57828;SDS011;43657;52.698;6.314;2023-11-21T16:17:35;18.23;;;16.38;;
57828;SDS011;43657;52.698;6.314;2023-11-21T16:20:02;16.92;;;15.20;;
57828;SDS011;43657;52.698;6.314;2023-11-21T16:22:33;17.27;;;15.57;;
57828;SDS011;43657;52.698;6.314;2023-11-21T16:24:59;17.13;;;15.55;;
57828;SDS011;43657;52.698;6.314;2023-11-21T16:27:25;17.35;;;15.80;;
57828;SDS011;43657;52.698;6.314;2023-11-21T16:29:52;22.83;;;20.63;;
57828;SDS011;43657;52.698;6.314;2023-11-21T16:32:17;21.45;;;19.55;;
57828;SDS011;43657;52.698;6.314;2023-11-21T16:34:43;18.23;;;16.63;;
57828;SDS011;43657;52.698;6.314;2023-11-21T16:37:10;19.00;;;17.38;;